<?xml version="1.0" encoding="UTF-8" standalone="no" ?>
<gpx xmlns="http://www.topografix.com/GPX/1/1" xmlns:xsi="http://www.w3.org/2001/XMLSchema-instance" xsi:schemaLocation="http://www.topografix.com/GPX/1/1 http://www.topografix.com/GPX/1/1/gpx.xsd" version="1.1" creator="VisuGPX - https://www.visugpx.com">
  <metadata>
    <name>LESIGNY</name>
    <desc><![CDATA[Lésigny avec J-C GRENE]]></desc>
  </metadata>
  <trk>
    <name><![CDATA[--Lésigny-- OR-5884085:Lésigny]]></name>
    <trkseg>
      <trkpt lat="48.74426" lon="2.6123">
        <ele>97</ele>
        <time>2016-03-29T15:21:59Z</time>
      </trkpt>
      <trkpt lat="48.74607" lon="2.60699">
        <ele>103</ele>
        <time>2016-03-29T15:23:59Z</time>
      </trkpt>
      <trkpt lat="48.74645" lon="2.60591">
        <ele>102</ele>
        <time>2016-03-29T15:25:59Z</time>
      </trkpt>
      <trkpt lat="48.74645" lon="2.60573">
        <ele>102</ele>
        <time>2016-03-29T15:27:59Z</time>
      </trkpt>
      <trkpt lat="48.74652" lon="2.60558">
        <ele>102</ele>
        <time>2016-03-29T15:29:59Z</time>
      </trkpt>
      <trkpt lat="48.74666" lon="2.60538">
        <ele>103</ele>
        <time>2016-03-29T15:31:59Z</time>
      </trkpt>
      <trkpt lat="48.74674" lon="2.60519">
        <ele>103</ele>
        <time>2016-03-29T15:33:59Z</time>
      </trkpt>
      <trkpt lat="48.74688" lon="2.6046">
        <ele>104</ele>
        <time>2016-03-29T15:35:59Z</time>
      </trkpt>
      <trkpt lat="48.74838" lon="2.60193">
        <ele>107</ele>
        <time>2016-03-29T15:37:59Z</time>
      </trkpt>
      <trkpt lat="48.75104" lon="2.59715">
        <ele>106</ele>
        <time>2016-03-29T15:39:59Z</time>
      </trkpt>
      <trkpt lat="48.75502" lon="2.59006">
        <ele>103</ele>
        <time>2016-03-29T15:41:59Z</time>
      </trkpt>
      <trkpt lat="48.75946" lon="2.58874">
        <ele>105</ele>
        <time>2016-03-29T15:43:59Z</time>
      </trkpt>
      <trkpt lat="48.75994" lon="2.58935">
        <ele>107</ele>
        <time>2016-03-29T15:45:59Z</time>
      </trkpt>
      <trkpt lat="48.76037" lon="2.59008">
        <ele>108</ele>
        <time>2016-03-29T15:47:59Z</time>
      </trkpt>
      <trkpt lat="48.7606" lon="2.59059">
        <ele>108</ele>
        <time>2016-03-29T15:49:59Z</time>
      </trkpt>
      <trkpt lat="48.76076" lon="2.591">
        <ele>108</ele>
        <time>2016-03-29T15:51:59Z</time>
      </trkpt>
      <trkpt lat="48.76084" lon="2.59118">
        <ele>108</ele>
        <time>2016-03-29T15:53:59Z</time>
      </trkpt>
      <trkpt lat="48.76098" lon="2.59104">
        <ele>108</ele>
        <time>2016-03-29T15:55:59Z</time>
      </trkpt>
      <trkpt lat="48.76114" lon="2.59092">
        <ele>108</ele>
        <time>2016-03-29T15:57:59Z</time>
      </trkpt>
      <trkpt lat="48.76164" lon="2.59053">
        <ele>107</ele>
        <time>2016-03-29T15:59:59Z</time>
      </trkpt>
      <trkpt lat="48.76182" lon="2.59034">
        <ele>108</ele>
        <time>2016-03-29T16:01:59Z</time>
      </trkpt>
      <trkpt lat="48.76208" lon="2.59015">
        <ele>108</ele>
        <time>2016-03-29T16:03:59Z</time>
      </trkpt>
      <trkpt lat="48.76227" lon="2.58999">
        <ele>108</ele>
        <time>2016-03-29T16:05:59Z</time>
      </trkpt>
      <trkpt lat="48.76244" lon="2.5898">
        <ele>108</ele>
        <time>2016-03-29T16:07:59Z</time>
      </trkpt>
      <trkpt lat="48.76264" lon="2.58949">
        <ele>108</ele>
        <time>2016-03-29T16:09:59Z</time>
      </trkpt>
      <trkpt lat="48.76317" lon="2.58874">
        <ele>107</ele>
        <time>2016-03-29T16:11:59Z</time>
      </trkpt>
      <trkpt lat="48.7636" lon="2.58796">
        <ele>109</ele>
        <time>2016-03-29T16:13:59Z</time>
      </trkpt>
      <trkpt lat="48.76383" lon="2.58757">
        <ele>109</ele>
        <time>2016-03-29T16:15:59Z</time>
      </trkpt>
      <trkpt lat="48.76397" lon="2.58728">
        <ele>109</ele>
        <time>2016-03-29T16:17:59Z</time>
      </trkpt>
      <trkpt lat="48.76419" lon="2.58674">
        <ele>109</ele>
        <time>2016-03-29T16:19:59Z</time>
      </trkpt>
      <trkpt lat="48.76433" lon="2.58649">
        <ele>108</ele>
        <time>2016-03-29T16:21:59Z</time>
      </trkpt>
      <trkpt lat="48.76461" lon="2.58581">
        <ele>108</ele>
        <time>2016-03-29T16:23:59Z</time>
      </trkpt>
      <trkpt lat="48.76487" lon="2.58505">
        <ele>108</ele>
        <time>2016-03-29T16:25:59Z</time>
      </trkpt>
      <trkpt lat="48.76526" lon="2.58387">
        <ele>109</ele>
        <time>2016-03-29T16:27:59Z</time>
      </trkpt>
      <trkpt lat="48.76539" lon="2.58352">
        <ele>109</ele>
        <time>2016-03-29T16:29:59Z</time>
      </trkpt>
      <trkpt lat="48.76566" lon="2.58255">
        <ele>109</ele>
        <time>2016-03-29T16:31:59Z</time>
      </trkpt>
      <trkpt lat="48.76594" lon="2.58155">
        <ele>108</ele>
        <time>2016-03-29T16:33:59Z</time>
      </trkpt>
      <trkpt lat="48.76613" lon="2.58086">
        <ele>109</ele>
        <time>2016-03-29T16:35:59Z</time>
      </trkpt>
      <trkpt lat="48.76695" lon="2.58168">
        <ele>109</ele>
        <time>2016-03-29T16:37:59Z</time>
      </trkpt>
      <trkpt lat="48.76689" lon="2.58195">
        <ele>109</ele>
        <time>2016-03-29T16:39:59Z</time>
      </trkpt>
      <trkpt lat="48.76677" lon="2.58217">
        <ele>110</ele>
        <time>2016-03-29T16:41:59Z</time>
      </trkpt>
      <trkpt lat="48.76665" lon="2.58233">
        <ele>110</ele>
        <time>2016-03-29T16:43:59Z</time>
      </trkpt>
      <trkpt lat="48.7666" lon="2.58265">
        <ele>110</ele>
        <time>2016-03-29T16:45:59Z</time>
      </trkpt>
      <trkpt lat="48.76658" lon="2.58302">
        <ele>109</ele>
        <time>2016-03-29T16:47:59Z</time>
      </trkpt>
      <trkpt lat="48.76653" lon="2.58339">
        <ele>109</ele>
        <time>2016-03-29T16:49:59Z</time>
      </trkpt>
      <trkpt lat="48.76664" lon="2.5837">
        <ele>109</ele>
        <time>2016-03-29T16:51:59Z</time>
      </trkpt>
      <trkpt lat="48.76668" lon="2.58404">
        <ele>108</ele>
        <time>2016-03-29T16:53:59Z</time>
      </trkpt>
      <trkpt lat="48.76668" lon="2.5848">
        <ele>109</ele>
        <time>2016-03-29T16:55:59Z</time>
      </trkpt>
      <trkpt lat="48.7667" lon="2.58646">
        <ele>108</ele>
        <time>2016-03-29T16:57:59Z</time>
      </trkpt>
      <trkpt lat="48.76801" lon="2.5861">
        <ele>107</ele>
        <time>2016-03-29T16:59:59Z</time>
      </trkpt>
      <trkpt lat="48.76872" lon="2.58812">
        <ele>109</ele>
        <time>2016-03-29T17:01:59Z</time>
      </trkpt>
      <trkpt lat="48.76874" lon="2.58829">
        <ele>110</ele>
        <time>2016-03-29T17:03:59Z</time>
      </trkpt>
      <trkpt lat="48.76847" lon="2.58845">
        <ele>110</ele>
        <time>2016-03-29T17:05:59Z</time>
      </trkpt>
      <trkpt lat="48.76821" lon="2.58847">
        <ele>110</ele>
        <time>2016-03-29T17:07:59Z</time>
      </trkpt>
      <trkpt lat="48.76792" lon="2.58862">
        <ele>109</ele>
        <time>2016-03-29T17:09:59Z</time>
      </trkpt>
      <trkpt lat="48.76764" lon="2.58873">
        <ele>108</ele>
        <time>2016-03-29T17:11:59Z</time>
      </trkpt>
      <trkpt lat="48.76734" lon="2.58886">
        <ele>107</ele>
        <time>2016-03-29T17:13:59Z</time>
      </trkpt>
      <trkpt lat="48.76716" lon="2.58894">
        <ele>107</ele>
        <time>2016-03-29T17:15:59Z</time>
      </trkpt>
      <trkpt lat="48.76783" lon="2.59163">
        <ele>110</ele>
        <time>2016-03-29T17:17:59Z</time>
      </trkpt>
      <trkpt lat="48.76858" lon="2.59457">
        <ele>111</ele>
        <time>2016-03-29T17:19:59Z</time>
      </trkpt>
      <trkpt lat="48.76992" lon="2.59407">
        <ele>110</ele>
        <time>2016-03-29T17:21:59Z</time>
      </trkpt>
      <trkpt lat="48.77038" lon="2.59559">
        <ele>110</ele>
        <time>2016-03-29T17:23:59Z</time>
      </trkpt>
      <trkpt lat="48.77069" lon="2.59654">
        <ele>109</ele>
        <time>2016-03-29T17:25:59Z</time>
      </trkpt>
      <trkpt lat="48.77093" lon="2.5973">
        <ele>108</ele>
        <time>2016-03-29T17:27:59Z</time>
      </trkpt>
      <trkpt lat="48.77111" lon="2.59782">
        <ele>108</ele>
        <time>2016-03-29T17:29:59Z</time>
      </trkpt>
      <trkpt lat="48.77124" lon="2.59831">
        <ele>108</ele>
        <time>2016-03-29T17:31:59Z</time>
      </trkpt>
      <trkpt lat="48.77136" lon="2.59878">
        <ele>108</ele>
        <time>2016-03-29T17:33:59Z</time>
      </trkpt>
      <trkpt lat="48.77177" lon="2.60037">
        <ele>108</ele>
        <time>2016-03-29T17:35:59Z</time>
      </trkpt>
      <trkpt lat="48.77208" lon="2.60028">
        <ele>108</ele>
        <time>2016-03-29T17:37:59Z</time>
      </trkpt>
      <trkpt lat="48.77208" lon="2.60052">
        <ele>108</ele>
        <time>2016-03-29T17:39:59Z</time>
      </trkpt>
      <trkpt lat="48.77209" lon="2.60098">
        <ele>108</ele>
        <time>2016-03-29T17:41:59Z</time>
      </trkpt>
      <trkpt lat="48.77212" lon="2.60145">
        <ele>109</ele>
        <time>2016-03-29T17:43:59Z</time>
      </trkpt>
      <trkpt lat="48.77215" lon="2.6018">
        <ele>110</ele>
        <time>2016-03-29T17:45:59Z</time>
      </trkpt>
      <trkpt lat="48.77217" lon="2.602">
        <ele>110</ele>
        <time>2016-03-29T17:47:59Z</time>
      </trkpt>
      <trkpt lat="48.77218" lon="2.6023">
        <ele>111</ele>
        <time>2016-03-29T17:49:59Z</time>
      </trkpt>
      <trkpt lat="48.77221" lon="2.60264">
        <ele>111</ele>
        <time>2016-03-29T17:51:59Z</time>
      </trkpt>
      <trkpt lat="48.77223" lon="2.60287">
        <ele>111</ele>
        <time>2016-03-29T17:53:59Z</time>
      </trkpt>
      <trkpt lat="48.77223" lon="2.60315">
        <ele>111</ele>
        <time>2016-03-29T17:55:59Z</time>
      </trkpt>
      <trkpt lat="48.77227" lon="2.60351">
        <ele>111</ele>
        <time>2016-03-29T17:57:59Z</time>
      </trkpt>
      <trkpt lat="48.7723" lon="2.60381">
        <ele>112</ele>
        <time>2016-03-29T17:59:59Z</time>
      </trkpt>
      <trkpt lat="48.77066" lon="2.6044">
        <ele>109</ele>
        <time>2016-03-29T18:01:59Z</time>
      </trkpt>
      <trkpt lat="48.77114" lon="2.60755">
        <ele>111</ele>
        <time>2016-03-29T18:03:59Z</time>
      </trkpt>
      <trkpt lat="48.7687" lon="2.60852">
        <ele>109</ele>
        <time>2016-03-29T18:05:59Z</time>
      </trkpt>
      <trkpt lat="48.7687" lon="2.60876">
        <ele>109</ele>
        <time>2016-03-29T18:07:59Z</time>
      </trkpt>
      <trkpt lat="48.76871" lon="2.609">
        <ele>109</ele>
        <time>2016-03-29T18:09:59Z</time>
      </trkpt>
      <trkpt lat="48.76879" lon="2.60932">
        <ele>109</ele>
        <time>2016-03-29T18:11:59Z</time>
      </trkpt>
      <trkpt lat="48.76884" lon="2.60963">
        <ele>109</ele>
        <time>2016-03-29T18:13:59Z</time>
      </trkpt>
      <trkpt lat="48.76886" lon="2.60979">
        <ele>110</ele>
        <time>2016-03-29T18:15:59Z</time>
      </trkpt>
      <trkpt lat="48.76888" lon="2.61">
        <ele>110</ele>
        <time>2016-03-29T18:17:59Z</time>
      </trkpt>
      <trkpt lat="48.76885" lon="2.61038">
        <ele>110</ele>
        <time>2016-03-29T18:19:59Z</time>
      </trkpt>
      <trkpt lat="48.76867" lon="2.61054">
        <ele>110</ele>
        <time>2016-03-29T18:21:59Z</time>
      </trkpt>
      <trkpt lat="48.76846" lon="2.61082">
        <ele>110</ele>
        <time>2016-03-29T18:23:59Z</time>
      </trkpt>
      <trkpt lat="48.76826" lon="2.61099">
        <ele>109</ele>
        <time>2016-03-29T18:25:59Z</time>
      </trkpt>
      <trkpt lat="48.7681" lon="2.61107">
        <ele>109</ele>
        <time>2016-03-29T18:27:59Z</time>
      </trkpt>
      <trkpt lat="48.76793" lon="2.61095">
        <ele>109</ele>
        <time>2016-03-29T18:29:59Z</time>
      </trkpt>
      <trkpt lat="48.76799" lon="2.61109">
        <ele>109</ele>
        <time>2016-03-29T18:31:59Z</time>
      </trkpt>
      <trkpt lat="48.76808" lon="2.61164">
        <ele>108</ele>
        <time>2016-03-29T18:33:59Z</time>
      </trkpt>
      <trkpt lat="48.76822" lon="2.61257">
        <ele>107</ele>
        <time>2016-03-29T18:35:59Z</time>
      </trkpt>
      <trkpt lat="48.7686" lon="2.61487">
        <ele>114</ele>
        <time>2016-03-29T18:37:59Z</time>
      </trkpt>
      <trkpt lat="48.76858" lon="2.61516">
        <ele>114</ele>
        <time>2016-03-29T18:39:59Z</time>
      </trkpt>
      <trkpt lat="48.76809" lon="2.61779">
        <ele>115</ele>
        <time>2016-03-29T18:41:59Z</time>
      </trkpt>
      <trkpt lat="48.76682" lon="2.62525">
        <ele>111</ele>
        <time>2016-03-29T18:43:59Z</time>
      </trkpt>
      <trkpt lat="48.76701" lon="2.6254">
        <ele>111</ele>
        <time>2016-03-29T18:45:59Z</time>
      </trkpt>
      <trkpt lat="48.76726" lon="2.62566">
        <ele>111</ele>
        <time>2016-03-29T18:47:59Z</time>
      </trkpt>
      <trkpt lat="48.76738" lon="2.62564">
        <ele>111</ele>
        <time>2016-03-29T18:49:59Z</time>
      </trkpt>
      <trkpt lat="48.76752" lon="2.62562">
        <ele>111</ele>
        <time>2016-03-29T18:51:59Z</time>
      </trkpt>
      <trkpt lat="48.76764" lon="2.62572">
        <ele>111</ele>
        <time>2016-03-29T18:53:59Z</time>
      </trkpt>
      <trkpt lat="48.76769" lon="2.6259">
        <ele>111</ele>
        <time>2016-03-29T18:55:59Z</time>
      </trkpt>
      <trkpt lat="48.76768" lon="2.62619">
        <ele>111</ele>
        <time>2016-03-29T18:57:59Z</time>
      </trkpt>
      <trkpt lat="48.7676" lon="2.62639">
        <ele>111</ele>
        <time>2016-03-29T18:59:59Z</time>
      </trkpt>
      <trkpt lat="48.76745" lon="2.62653">
        <ele>111</ele>
        <time>2016-03-29T19:01:59Z</time>
      </trkpt>
      <trkpt lat="48.7674" lon="2.6267">
        <ele>111</ele>
        <time>2016-03-29T19:03:59Z</time>
      </trkpt>
      <trkpt lat="48.76742" lon="2.62693">
        <ele>111</ele>
        <time>2016-03-29T19:05:59Z</time>
      </trkpt>
      <trkpt lat="48.76758" lon="2.62787">
        <ele>110</ele>
        <time>2016-03-29T19:07:59Z</time>
      </trkpt>
      <trkpt lat="48.76737" lon="2.62804">
        <ele>111</ele>
        <time>2016-03-29T19:09:59Z</time>
      </trkpt>
      <trkpt lat="48.76701" lon="2.62837">
        <ele>110</ele>
        <time>2016-03-29T19:11:59Z</time>
      </trkpt>
      <trkpt lat="48.76684" lon="2.62857">
        <ele>110</ele>
        <time>2016-03-29T19:13:59Z</time>
      </trkpt>
      <trkpt lat="48.76661" lon="2.62876">
        <ele>110</ele>
        <time>2016-03-29T19:15:59Z</time>
      </trkpt>
      <trkpt lat="48.76638" lon="2.62896">
        <ele>109</ele>
        <time>2016-03-29T19:17:59Z</time>
      </trkpt>
      <trkpt lat="48.76612" lon="2.62923">
        <ele>109</ele>
        <time>2016-03-29T19:19:59Z</time>
      </trkpt>
      <trkpt lat="48.76472" lon="2.62957">
        <ele>111</ele>
        <time>2016-03-29T19:21:59Z</time>
      </trkpt>
      <trkpt lat="48.7641" lon="2.62967">
        <ele>112</ele>
        <time>2016-03-29T19:23:59Z</time>
      </trkpt>
      <trkpt lat="48.76381" lon="2.62965">
        <ele>112</ele>
        <time>2016-03-29T19:25:59Z</time>
      </trkpt>
      <trkpt lat="48.76356" lon="2.62968">
        <ele>112</ele>
        <time>2016-03-29T19:27:59Z</time>
      </trkpt>
      <trkpt lat="48.76329" lon="2.62978">
        <ele>112</ele>
        <time>2016-03-29T19:29:59Z</time>
      </trkpt>
      <trkpt lat="48.76189" lon="2.62905">
        <ele>110</ele>
        <time>2016-03-29T19:31:59Z</time>
      </trkpt>
      <trkpt lat="48.76172" lon="2.62892">
        <ele>110</ele>
        <time>2016-03-29T19:33:59Z</time>
      </trkpt>
      <trkpt lat="48.76154" lon="2.62889">
        <ele>110</ele>
        <time>2016-03-29T19:35:59Z</time>
      </trkpt>
      <trkpt lat="48.76049" lon="2.62834">
        <ele>109</ele>
        <time>2016-03-29T19:37:59Z</time>
      </trkpt>
      <trkpt lat="48.7598" lon="2.62803">
        <ele>109</ele>
        <time>2016-03-29T19:39:59Z</time>
      </trkpt>
      <trkpt lat="48.7585" lon="2.62742">
        <ele>106</ele>
        <time>2016-03-29T19:41:59Z</time>
      </trkpt>
      <trkpt lat="48.75805" lon="2.62716">
        <ele>106</ele>
        <time>2016-03-29T19:43:59Z</time>
      </trkpt>
      <trkpt lat="48.75783" lon="2.62703">
        <ele>106</ele>
        <time>2016-03-29T19:45:59Z</time>
      </trkpt>
      <trkpt lat="48.75759" lon="2.62683">
        <ele>106</ele>
        <time>2016-03-29T19:47:59Z</time>
      </trkpt>
      <trkpt lat="48.75734" lon="2.62672">
        <ele>106</ele>
        <time>2016-03-29T19:49:59Z</time>
      </trkpt>
      <trkpt lat="48.75716" lon="2.62666">
        <ele>106</ele>
        <time>2016-03-29T19:51:59Z</time>
      </trkpt>
      <trkpt lat="48.75703" lon="2.62649">
        <ele>106</ele>
        <time>2016-03-29T19:53:59Z</time>
      </trkpt>
      <trkpt lat="48.75674" lon="2.62635">
        <ele>105</ele>
        <time>2016-03-29T19:55:59Z</time>
      </trkpt>
      <trkpt lat="48.75656" lon="2.62627">
        <ele>105</ele>
        <time>2016-03-29T19:57:59Z</time>
      </trkpt>
      <trkpt lat="48.75659" lon="2.62603">
        <ele>106</ele>
        <time>2016-03-29T19:59:59Z</time>
      </trkpt>
      <trkpt lat="48.75687" lon="2.62559">
        <ele>108</ele>
        <time>2016-03-29T20:01:59Z</time>
      </trkpt>
      <trkpt lat="48.7574" lon="2.62468">
        <ele>110</ele>
        <time>2016-03-29T20:03:59Z</time>
      </trkpt>
      <trkpt lat="48.75716" lon="2.62447">
        <ele>109</ele>
        <time>2016-03-29T20:05:59Z</time>
      </trkpt>
      <trkpt lat="48.75689" lon="2.62415">
        <ele>109</ele>
        <time>2016-03-29T20:07:59Z</time>
      </trkpt>
      <trkpt lat="48.75672" lon="2.62387">
        <ele>109</ele>
        <time>2016-03-29T20:09:59Z</time>
      </trkpt>
      <trkpt lat="48.75659" lon="2.62351">
        <ele>109</ele>
        <time>2016-03-29T20:11:59Z</time>
      </trkpt>
      <trkpt lat="48.75644" lon="2.62343">
        <ele>109</ele>
        <time>2016-03-29T20:13:59Z</time>
      </trkpt>
      <trkpt lat="48.75622" lon="2.62341">
        <ele>109</ele>
        <time>2016-03-29T20:15:59Z</time>
      </trkpt>
      <trkpt lat="48.75602" lon="2.6234">
        <ele>108</ele>
        <time>2016-03-29T20:17:59Z</time>
      </trkpt>
      <trkpt lat="48.75465" lon="2.62318">
        <ele>105</ele>
        <time>2016-03-29T20:19:59Z</time>
      </trkpt>
      <trkpt lat="48.75317" lon="2.62298">
        <ele>100</ele>
        <time>2016-03-29T20:21:59Z</time>
      </trkpt>
      <trkpt lat="48.75312" lon="2.62326">
        <ele>100</ele>
        <time>2016-03-29T20:23:59Z</time>
      </trkpt>
      <trkpt lat="48.75315" lon="2.62351">
        <ele>100</ele>
        <time>2016-03-29T20:25:59Z</time>
      </trkpt>
      <trkpt lat="48.753" lon="2.62347">
        <ele>99</ele>
        <time>2016-03-29T20:27:59Z</time>
      </trkpt>
      <trkpt lat="48.75282" lon="2.62354">
        <ele>99</ele>
        <time>2016-03-29T20:29:59Z</time>
      </trkpt>
      <trkpt lat="48.75241" lon="2.62384">
        <ele>98</ele>
        <time>2016-03-29T20:31:59Z</time>
      </trkpt>
      <trkpt lat="48.75225" lon="2.62401">
        <ele>98</ele>
        <time>2016-03-29T20:33:59Z</time>
      </trkpt>
      <trkpt lat="48.75216" lon="2.62416">
        <ele>97</ele>
        <time>2016-03-29T20:35:59Z</time>
      </trkpt>
      <trkpt lat="48.75207" lon="2.62425">
        <ele>97</ele>
        <time>2016-03-29T20:37:59Z</time>
      </trkpt>
      <trkpt lat="48.75155" lon="2.62412">
        <ele>96</ele>
        <time>2016-03-29T20:39:59Z</time>
      </trkpt>
      <trkpt lat="48.75135" lon="2.62375">
        <ele>96</ele>
        <time>2016-03-29T20:41:59Z</time>
      </trkpt>
      <trkpt lat="48.75109" lon="2.62332">
        <ele>96</ele>
        <time>2016-03-29T20:43:59Z</time>
      </trkpt>
      <trkpt lat="48.75076" lon="2.62277">
        <ele>96</ele>
        <time>2016-03-29T20:45:59Z</time>
      </trkpt>
      <trkpt lat="48.75053" lon="2.62247">
        <ele>96</ele>
        <time>2016-03-29T20:47:59Z</time>
      </trkpt>
      <trkpt lat="48.75024" lon="2.6221">
        <ele>97</ele>
        <time>2016-03-29T20:49:59Z</time>
      </trkpt>
      <trkpt lat="48.74998" lon="2.62172">
        <ele>98</ele>
        <time>2016-03-29T20:51:59Z</time>
      </trkpt>
      <trkpt lat="48.74973" lon="2.6215">
        <ele>99</ele>
        <time>2016-03-29T20:53:59Z</time>
      </trkpt>
      <trkpt lat="48.7495" lon="2.62136">
        <ele>99</ele>
        <time>2016-03-29T20:55:59Z</time>
      </trkpt>
      <trkpt lat="48.74932" lon="2.62115">
        <ele>100</ele>
        <time>2016-03-29T20:57:59Z</time>
      </trkpt>
      <trkpt lat="48.74914" lon="2.62084">
        <ele>101</ele>
        <time>2016-03-29T20:59:59Z</time>
      </trkpt>
      <trkpt lat="48.74892" lon="2.62036">
        <ele>101</ele>
        <time>2016-03-29T21:01:59Z</time>
      </trkpt>
      <trkpt lat="48.74875" lon="2.62">
        <ele>100</ele>
        <time>2016-03-29T21:03:59Z</time>
      </trkpt>
      <trkpt lat="48.74862" lon="2.61977">
        <ele>99</ele>
        <time>2016-03-29T21:05:59Z</time>
      </trkpt>
      <trkpt lat="48.74827" lon="2.61944">
        <ele>98</ele>
        <time>2016-03-29T21:07:59Z</time>
      </trkpt>
      <trkpt lat="48.74783" lon="2.61904">
        <ele>98</ele>
        <time>2016-03-29T21:09:59Z</time>
      </trkpt>
      <trkpt lat="48.74766" lon="2.61905">
        <ele>98</ele>
        <time>2016-03-29T21:11:59Z</time>
      </trkpt>
      <trkpt lat="48.74758" lon="2.61901">
        <ele>98</ele>
        <time>2016-03-29T21:13:59Z</time>
      </trkpt>
      <trkpt lat="48.74752" lon="2.61888">
        <ele>98</ele>
        <time>2016-03-29T21:15:59Z</time>
      </trkpt>
      <trkpt lat="48.7475" lon="2.61863">
        <ele>99</ele>
        <time>2016-03-29T21:17:59Z</time>
      </trkpt>
      <trkpt lat="48.74655" lon="2.61773">
        <ele>98</ele>
        <time>2016-03-29T21:19:59Z</time>
      </trkpt>
      <trkpt lat="48.74419" lon="2.61551">
        <ele>97</ele>
        <time>2016-03-29T21:21:59Z</time>
      </trkpt>
      <trkpt lat="48.74396" lon="2.61531">
        <ele>97</ele>
        <time>2016-03-29T21:23:59Z</time>
      </trkpt>
      <trkpt lat="48.74386" lon="2.61518">
        <ele>97</ele>
        <time>2016-03-29T21:25:59Z</time>
      </trkpt>
      <trkpt lat="48.74392" lon="2.61501">
        <ele>97</ele>
        <time>2016-03-29T21:27:59Z</time>
      </trkpt>
      <trkpt lat="48.74402" lon="2.61472">
        <ele>97</ele>
        <time>2016-03-29T21:29:59Z</time>
      </trkpt>
      <trkpt lat="48.74415" lon="2.61414">
        <ele>98</ele>
        <time>2016-03-29T21:31:59Z</time>
      </trkpt>
      <trkpt lat="48.74434" lon="2.61343">
        <ele>97</ele>
        <time>2016-03-29T21:33:59Z</time>
      </trkpt>
      <trkpt lat="48.74437" lon="2.61319">
        <ele>97</ele>
        <time>2016-03-29T21:35:59Z</time>
      </trkpt>
      <trkpt lat="48.74429" lon="2.61303">
        <ele>97</ele>
        <time>2016-03-29T21:37:59Z</time>
      </trkpt>
      <trkpt lat="48.74437" lon="2.61287">
        <ele>97</ele>
        <time>2016-03-29T21:39:59Z</time>
      </trkpt>
      <trkpt lat="48.74436" lon="2.61272">
        <ele>96</ele>
        <time>2016-03-29T21:41:59Z</time>
      </trkpt>
      <trkpt lat="48.7443" lon="2.61255">
        <ele>96</ele>
        <time>2016-03-29T21:43:59Z</time>
      </trkpt>
      <trkpt lat="48.74415" lon="2.61229">
        <ele>97</ele>
        <time>2016-03-29T21:45:59Z</time>
      </trkpt>
    </trkseg>
  </trk>
</gpx>